createdAt,value
2023-01-22T00:00:09.153Z,13.27
2023-01-22T00:02:37.225Z,12.73
2023-01-22T00:05:05.088Z,11.70
2023-01-22T00:07:34.152Z,12.23
2023-01-22T00:10:00.901Z,12.82
2023-01-22T00:12:27.929Z,12.48
2023-01-22T00:14:54.631Z,12.80
2023-01-22T00:17:21.225Z,12.73
2023-01-22T00:19:47.871Z,11.90
2023-01-22T00:22:14.452Z,12.02
2023-01-22T00:24:41.127Z,11.80
2023-01-22T00:27:07.873Z,13.18
2023-01-22T00:29:37.625Z,13.88
2023-01-22T00:32:04.555Z,13.00
2023-01-22T00:34:31.317Z,12.85
2023-01-22T00:36:58.269Z,13.05
2023-01-22T00:39:27.132Z,12.85
2023-01-22T00:41:53.685Z,13.43
2023-01-22T00:44:20.294Z,13.05
2023-01-22T00:46:46.954Z,13.55
2023-01-22T00:49:13.537Z,12.52
2023-01-22T00:51:40.311Z,13.73
2023-01-22T00:54:07.091Z,13.65
2023-01-22T00:56:33.819Z,13.75
2023-01-22T00:59:00.440Z,13.02
2023-01-22T01:01:27.141Z,14.02
2023-01-22T01:03:53.762Z,13.75
2023-01-22T01:06:22.102Z,14.07
2023-01-22T01:08:50.232Z,14.23
2023-01-22T01:11:22.718Z,13.00
2023-01-22T01:13:50.968Z,13.88
2023-01-22T01:16:29.883Z,13.98
2023-01-22T01:19:01.377Z,13.75
2023-01-22T01:21:28.734Z,13.63
2023-01-22T01:23:57.353Z,14.07
2023-01-22T01:26:24.932Z,14.00
2023-01-22T01:28:55.032Z,14.07
2023-01-22T01:31:23.882Z,12.93
2023-01-22T01:33:50.543Z,14.32
2023-01-22T01:36:30.643Z,13.82
2023-01-22T01:39:04.997Z,13.68
2023-01-22T01:41:31.876Z,13.02
2023-01-22T01:44:10.808Z,13.88
2023-01-22T01:46:51.948Z,13.05
2023-01-22T01:49:21.264Z,14.45
2023-01-22T01:51:48.852Z,13.52
2023-01-22T01:54:16.274Z,14.60
2023-01-22T01:56:51.013Z,14.18
2023-01-22T01:59:20.115Z,15.00
2023-01-22T02:01:53.599Z,13.75
2023-01-22T02:06:47.065Z,14.07
2023-01-22T02:09:14.487Z,13.07
2023-01-22T02:11:41.285Z,14.18
2023-01-22T02:14:12.929Z,15.30
2023-01-22T02:16:39.735Z,15.50
2023-01-22T02:19:06.381Z,15.70
2023-01-22T02:21:32.942Z,15.48
2023-01-22T02:24:00.145Z,14.55
2023-01-22T02:26:26.926Z,15.45
2023-01-22T02:28:53.849Z,15.55
2023-01-22T02:31:22.727Z,14.70
2023-01-22T02:33:49.468Z,15.48
2023-01-22T02:36:18.448Z,15.75
2023-01-22T02:38:45.033Z,14.40
2023-01-22T02:41:12.025Z,14.65
2023-01-22T02:43:39.226Z,14.40
2023-01-22T02:46:05.905Z,14.80
2023-01-22T02:48:32.590Z,14.38
2023-01-22T02:50:59.255Z,13.98
2023-01-22T02:53:26.151Z,14.70
2023-01-22T02:55:52.785Z,14.60
2023-01-22T02:58:19.363Z,13.93
2023-01-22T03:00:45.891Z,14.40
2023-01-22T03:03:15.375Z,13.98
2023-01-22T03:05:52.218Z,13.50
2023-01-22T03:08:22.254Z,14.15
2023-01-22T03:10:48.808Z,14.13
2023-01-22T03:13:33.717Z,13.68
2023-01-22T03:16:22.661Z,14.23
2023-01-22T03:19:08.026Z,14.32
2023-01-22T03:21:34.645Z,14.85
2023-01-22T03:24:01.192Z,15.68
2023-01-22T03:26:31.614Z,15.25
2023-01-22T03:29:00.669Z,15.20
2023-01-22T03:31:27.445Z,15.10
2023-01-22T03:33:54.140Z,15.77
2023-01-22T03:36:20.706Z,15.35
2023-01-22T03:38:47.662Z,15.93
2023-01-22T03:41:17.083Z,15.20
2023-01-22T03:43:46.468Z,14.23
2023-01-22T03:46:16.383Z,14.40
2023-01-22T03:48:44.472Z,14.93
2023-01-22T03:51:14.759Z,13.55
2023-01-22T03:53:43.378Z,14.70
2023-01-22T03:56:17.881Z,14.48
2023-01-22T03:58:45.049Z,14.70
2023-01-22T04:01:14.564Z,15.20
2023-01-22T04:03:41.629Z,14.50
2023-01-22T04:06:10.606Z,15.00
2023-01-22T04:08:41.069Z,15.82
2023-01-22T04:11:08.127Z,15.32
2023-01-22T04:13:36.191Z,14.95
2023-01-22T04:16:03.423Z,13.80
2023-01-22T04:18:30.644Z,12.75
2023-01-22T04:20:57.660Z,13.45
2023-01-22T04:23:25.348Z,13.43
2023-01-22T04:25:52.819Z,14.10
2023-01-22T04:28:20.061Z,14.10
2023-01-22T04:30:49.332Z,13.63
2023-01-22T04:33:15.936Z,14.18
2023-01-22T04:35:42.525Z,14.82
2023-01-22T04:38:12.966Z,13.65
2023-01-22T04:40:40.080Z,14.68
2023-01-22T04:43:09.696Z,13.48
2023-01-22T04:45:38.953Z,13.95
2023-01-22T04:48:08.479Z,13.25
2023-01-22T04:50:37.404Z,13.60
2023-01-22T04:53:05.072Z,14.10
2023-01-22T04:55:33.962Z,14.10
2023-01-22T04:58:01.311Z,15.45
2023-01-22T05:00:31.220Z,14.95
2023-01-22T05:02:59.421Z,13.52
2023-01-22T05:05:27.292Z,13.82
2023-01-22T05:07:56.343Z,14.60
2023-01-22T05:10:23.777Z,14.10
2023-01-22T05:12:53.000Z,14.63
2023-01-22T05:15:24.352Z,14.50
2023-01-22T05:17:51.858Z,14.13
2023-01-22T05:20:18.834Z,13.18
2023-01-22T05:22:45.523Z,13.65
2023-01-22T05:25:12.644Z,14.50
2023-01-22T05:27:39.280Z,13.55
2023-01-22T05:30:07.333Z,14.60
2023-01-22T05:32:36.536Z,14.88
2023-01-22T05:35:04.385Z,17.02
2023-01-22T05:37:31.970Z,14.90
2023-01-22T05:39:58.572Z,15.93
2023-01-22T05:42:25.226Z,15.38
2023-01-22T05:44:51.771Z,15.25
2023-01-22T05:47:18.624Z,14.98
2023-01-22T05:49:45.204Z,14.82
2023-01-22T05:52:11.806Z,14.25
2023-01-22T05:54:40.785Z,15.15
2023-01-22T05:57:07.636Z,16.00
2023-01-22T05:59:34.650Z,15.93
2023-01-22T06:02:01.825Z,17.33
2023-01-22T06:04:28.861Z,17.35
2023-01-22T06:06:55.537Z,18.63
2023-01-22T06:09:22.636Z,17.60
2023-01-22T06:11:49.388Z,18.45
2023-01-22T06:14:18.587Z,18.38
2023-01-22T06:16:45.168Z,17.65
2023-01-22T06:19:12.572Z,17.38
2023-01-22T06:21:39.188Z,17.00
2023-01-22T06:24:06.193Z,18.38
2023-01-22T06:26:32.854Z,16.60
2023-01-22T06:28:59.399Z,17.58
2023-01-22T06:31:26.196Z,16.95
2023-01-22T06:33:54.658Z,16.95
2023-01-22T06:36:21.213Z,17.80
2023-01-22T06:38:48.091Z,17.70
2023-01-22T06:41:16.945Z,18.17
2023-01-22T06:43:43.537Z,17.90
2023-01-22T06:46:10.320Z,18.13
2023-01-22T06:48:36.990Z,18.33
2023-01-22T06:51:03.828Z,18.50
2023-01-22T06:53:30.611Z,18.40
2023-01-22T06:55:59.547Z,17.98
2023-01-22T06:58:26.386Z,18.05
2023-01-22T07:00:53.002Z,17.42
2023-01-22T07:03:20.378Z,17.55
2023-01-22T07:05:46.886Z,16.75
2023-01-22T07:08:15.266Z,17.90
2023-01-22T07:10:42.219Z,18.58
2023-01-22T07:13:10.261Z,18.00
2023-01-22T07:15:39.082Z,18.90
2023-01-22T07:18:05.631Z,19.13
2023-01-22T07:20:32.770Z,19.42
2023-01-22T07:23:00.262Z,18.08
2023-01-22T07:25:27.621Z,19.10
2023-01-22T07:28:01.696Z,19.05
2023-01-22T07:30:31.110Z,19.73
2023-01-22T07:33:02.450Z,20.45
2023-01-22T07:35:30.084Z,20.10
2023-01-22T07:37:58.498Z,20.35
2023-01-22T07:40:25.950Z,20.63
2023-01-22T07:42:53.302Z,20.13
2023-01-22T07:45:21.100Z,19.20
2023-01-22T07:47:59.162Z,20.20
2023-01-22T07:50:28.915Z,19.42
2023-01-22T07:52:56.222Z,19.33
2023-01-22T07:55:23.858Z,20.00
2023-01-22T07:58:01.232Z,20.35
2023-01-22T08:00:27.908Z,21.10
2023-01-22T08:02:56.735Z,21.83
2023-01-22T08:05:23.559Z,21.38
2023-01-22T08:07:52.735Z,22.27
2023-01-22T08:10:20.372Z,21.40
2023-01-22T08:12:47.488Z,24.77
2023-01-22T08:15:18.850Z,23.13
2023-01-22T08:17:48.302Z,21.92
2023-01-22T08:20:14.874Z,23.50
2023-01-22T08:22:41.495Z,22.98
2023-01-22T08:25:08.409Z,22.98
2023-01-22T08:27:37.498Z,21.77
2023-01-22T08:30:05.347Z,22.88
2023-01-22T08:32:32.012Z,22.00
2023-01-22T08:34:58.632Z,22.25
2023-01-22T08:37:25.570Z,23.77
2023-01-22T08:39:52.189Z,22.90
2023-01-22T08:42:18.939Z,24.80
2023-01-22T08:44:45.499Z,23.10
2023-01-22T08:47:12.496Z,24.30
2023-01-22T08:49:39.093Z,26.05
2023-01-22T08:52:06.134Z,24.17
2023-01-22T08:54:32.735Z,25.17
2023-01-22T08:56:59.408Z,25.80
2023-01-22T08:59:25.976Z,27.00
2023-01-22T09:01:55.104Z,27.35
2023-01-22T09:04:22.599Z,26.17
2023-01-22T09:06:49.156Z,22.08
2023-01-22T09:09:15.829Z,21.63
2023-01-22T09:11:42.426Z,22.25
2023-01-22T09:14:11.215Z,25.23
2023-01-22T09:16:37.921Z,25.48
2023-01-22T09:19:05.694Z,23.70
2023-01-22T09:21:33.837Z,21.30
2023-01-22T09:24:00.959Z,20.67
2023-01-22T09:26:27.574Z,21.88
2023-01-22T09:28:54.187Z,50.22
2023-01-22T09:31:20.889Z,46.70
2023-01-22T09:33:51.277Z,25.13
2023-01-22T09:36:18.115Z,23.95
2023-01-22T09:38:44.941Z,23.40
2023-01-22T09:41:20.449Z,22.98
2023-01-22T09:43:59.699Z,23.45
2023-01-22T09:46:43.361Z,24.60
2023-01-22T09:49:20.166Z,22.38
2023-01-22T09:51:58.626Z,24.27
2023-01-22T09:54:26.102Z,22.05
2023-01-22T09:56:57.095Z,19.63
2023-01-22T09:59:32.420Z,18.88
2023-01-22T10:02:11.232Z,19.70
2023-01-22T10:04:46.590Z,21.13
2023-01-22T10:07:31.007Z,21.75
2023-01-22T10:10:03.398Z,20.33
2023-01-22T10:12:32.191Z,21.92
2023-01-22T10:14:58.953Z,20.85
2023-01-22T10:17:32.721Z,20.00
2023-01-22T10:20:04.269Z,19.20
2023-01-22T10:22:31.070Z,20.05
2023-01-22T10:24:58.775Z,19.58
2023-01-22T10:27:36.973Z,18.70
2023-01-22T10:30:25.373Z,19.38
2023-01-22T10:33:04.369Z,18.85
2023-01-22T10:35:32.215Z,18.95
2023-01-22T10:38:00.854Z,19.85
2023-01-22T10:40:27.453Z,20.40
2023-01-22T10:43:04.029Z,20.27
2023-01-22T10:45:30.841Z,19.75
2023-01-22T10:48:27.044Z,20.33
2023-01-22T10:50:59.828Z,19.08
2023-01-22T10:53:33.480Z,20.33
2023-01-22T10:56:02.506Z,20.00
2023-01-22T10:58:36.675Z,18.10
2023-01-22T11:01:06.839Z,19.25
2023-01-22T11:03:36.750Z,19.35
2023-01-22T11:06:12.451Z,19.65
2023-01-22T11:08:51.202Z,18.30
2023-01-22T11:11:23.652Z,18.35
2023-01-22T11:14:18.358Z,19.27
2023-01-22T11:16:49.805Z,18.40
2023-01-22T11:19:36.108Z,19.25
2023-01-22T11:22:11.780Z,17.92
2023-01-22T11:24:47.136Z,17.45
2023-01-22T11:27:22.514Z,17.70
2023-01-22T11:30:07.929Z,18.50
2023-01-22T11:33:10.695Z,20.00
2023-01-22T11:36:08.799Z,20.33
2023-01-22T11:38:51.264Z,20.25
2023-01-22T11:41:27.339Z,19.70
2023-01-22T11:44:21.597Z,21.75
2023-01-22T11:47:03.282Z,21.17
2023-01-22T11:50:03.511Z,18.88
2023-01-22T11:53:02.570Z,19.45
2023-01-22T11:55:54.608Z,19.42
2023-01-22T11:58:35.523Z,20.17
2023-01-22T12:01:41.616Z,19.65
2023-01-22T12:04:35.809Z,19.75
2023-01-22T12:07:08.244Z,18.40
2023-01-22T12:10:08.763Z,18.40
2023-01-22T12:12:49.240Z,19.88
2023-01-22T12:15:32.031Z,20.40
2023-01-22T12:18:29.745Z,19.33
2023-01-22T12:21:21.999Z,20.23
2023-01-22T12:24:19.370Z,19.48
2023-01-22T12:26:56.674Z,19.83
2023-01-22T12:29:29.010Z,20.67
2023-01-22T12:32:09.006Z,19.42
2023-01-22T12:34:48.381Z,22.02
2023-01-22T12:37:19.032Z,20.88
2023-01-22T12:40:21.503Z,19.80
2023-01-22T12:43:00.423Z,30.80
2023-01-22T12:45:47.274Z,23.30
2023-01-22T12:48:35.095Z,18.52
2023-01-22T12:51:01.733Z,17.70
2023-01-22T12:53:39.110Z,16.95
2023-01-22T12:56:09.421Z,15.60
2023-01-22T12:58:39.794Z,16.17
2023-01-22T13:01:22.721Z,14.75
2023-01-22T13:04:01.594Z,13.63
2023-01-22T13:06:41.050Z,13.07
2023-01-22T13:09:24.673Z,12.23
2023-01-22T13:11:51.237Z,12.75
2023-01-22T13:14:19.739Z,13.55
2023-01-22T13:16:59.590Z,12.57
2023-01-22T13:19:42.520Z,14.10
2023-01-22T13:22:35.546Z,14.17
2023-01-22T13:25:02.321Z,16.60
2023-01-22T13:27:35.161Z,15.25
2023-01-22T13:30:14.662Z,14.57
2023-01-22T13:32:41.645Z,16.63
2023-01-22T13:35:13.255Z,14.85
2023-01-22T13:37:41.924Z,15.35
2023-01-22T13:40:23.433Z,16.02
2023-01-22T13:42:51.356Z,14.63
2023-01-22T13:45:33.137Z,17.08
2023-01-22T13:48:04.289Z,16.35
2023-01-22T13:50:31.955Z,15.38
2023-01-22T13:53:01.282Z,14.50
2023-01-22T13:55:28.909Z,27.77
2023-01-22T13:58:01.581Z,36.30
2023-01-22T14:00:39.567Z,20.10
2023-01-22T14:03:21.888Z,31.80
2023-01-22T14:05:50.230Z,23.83
2023-01-22T14:08:16.996Z,17.70
2023-01-22T14:10:43.761Z,18.58
2023-01-22T14:13:13.442Z,17.65
2023-01-22T14:15:41.383Z,17.85
2023-01-22T14:18:13.351Z,18.98
2023-01-22T14:20:41.656Z,17.85
2023-01-22T14:23:08.302Z,18.55
2023-01-22T14:25:44.026Z,20.20
2023-01-22T14:28:13.347Z,19.50
2023-01-22T14:30:42.242Z,20.15
2023-01-22T14:33:15.369Z,19.95
2023-01-22T14:35:42.001Z,20.05
2023-01-22T14:38:08.569Z,21.30
2023-01-22T14:40:35.266Z,20.83
2023-01-22T14:43:02.736Z,20.92
2023-01-22T14:45:29.752Z,20.90
2023-01-22T14:47:56.565Z,20.67
2023-01-22T14:50:24.024Z,19.27
2023-01-22T14:52:51.511Z,18.48
2023-01-22T14:55:19.327Z,18.63
2023-01-22T14:57:48.453Z,17.85
2023-01-22T15:00:17.620Z,20.70
2023-01-22T15:02:44.722Z,21.25
2023-01-22T15:05:14.547Z,19.73
2023-01-22T15:07:41.140Z,19.13
2023-01-22T15:10:08.552Z,22.33
2023-01-22T15:12:35.201Z,22.52
2023-01-22T15:15:01.961Z,21.73
2023-01-22T15:17:28.566Z,20.73
2023-01-22T15:19:55.242Z,20.58
2023-01-22T15:22:21.815Z,20.00
2023-01-22T15:24:48.605Z,22.30
2023-01-22T15:27:18.564Z,19.55
2023-01-22T15:29:46.385Z,19.67
2023-01-22T15:32:13.256Z,20.73
2023-01-22T15:34:40.055Z,28.20
2023-01-22T15:37:06.957Z,21.20
2023-01-22T15:39:33.634Z,28.00
2023-01-22T15:42:00.242Z,19.98
2023-01-22T15:44:26.826Z,22.80
2023-01-22T15:46:53.959Z,22.23
2023-01-22T15:49:20.539Z,20.55
2023-01-22T15:51:47.089Z,22.08
2023-01-22T15:54:15.659Z,23.02
2023-01-22T15:56:42.515Z,25.17
2023-01-22T15:59:11.591Z,26.52
2023-01-22T16:01:38.487Z,26.20
2023-01-22T16:04:06.344Z,26.15
2023-01-22T16:06:34.763Z,25.30
2023-01-22T16:09:03.116Z,28.73
2023-01-22T16:11:30.305Z,26.95
2023-01-22T16:13:59.135Z,25.00
2023-01-22T16:16:36.248Z,26.15
2023-01-22T16:19:05.017Z,23.00
2023-01-22T16:21:34.650Z,22.23
2023-01-22T16:24:04.761Z,19.88
2023-01-22T16:26:36.453Z,19.60
2023-01-22T16:29:04.874Z,19.77
2023-01-22T16:31:37.632Z,30.60
2023-01-22T16:34:15.656Z,24.20
2023-01-22T16:36:45.662Z,47.67
2023-01-22T16:39:23.397Z,41.75
2023-01-22T16:41:51.361Z,30.30
2023-01-22T16:44:20.556Z,29.38
2023-01-22T16:46:49.630Z,27.05
2023-01-22T16:49:22.255Z,24.58
2023-01-22T16:51:54.498Z,25.13
2023-01-22T16:54:32.780Z,24.77
2023-01-22T16:57:03.062Z,24.52
2023-01-22T16:59:31.068Z,26.58
2023-01-22T17:01:59.627Z,24.00
2023-01-22T17:04:26.964Z,21.75
2023-01-22T17:06:55.605Z,23.58
2023-01-22T17:09:27.415Z,23.58
2023-01-22T17:12:03.119Z,26.05
2023-01-22T17:14:31.837Z,35.53
2023-01-22T17:16:58.979Z,32.85
2023-01-22T17:19:25.450Z,29.40
2023-01-22T17:21:57.937Z,28.48
2023-01-22T17:24:25.325Z,25.15
2023-01-22T17:26:52.630Z,24.25
2023-01-22T17:29:22.092Z,24.98
2023-01-22T17:31:48.726Z,23.52
2023-01-22T17:34:15.660Z,22.70
2023-01-22T17:36:42.471Z,23.65
2023-01-22T17:39:14.752Z,23.25
2023-01-22T17:41:44.106Z,22.13
2023-01-22T17:44:12.077Z,22.13
2023-01-22T17:46:38.977Z,23.05
2023-01-22T17:49:05.987Z,20.60
2023-01-22T17:51:34.603Z,20.83
2023-01-22T17:54:03.183Z,20.92
2023-01-22T17:56:35.328Z,22.70
2023-01-22T17:59:06.124Z,22.05
2023-01-22T18:01:35.085Z,22.10
2023-01-22T18:04:05.476Z,21.95
2023-01-22T18:06:32.355Z,22.25
2023-01-22T18:08:58.930Z,22.17
2023-01-22T18:11:28.348Z,21.70
2023-01-22T18:14:00.480Z,24.20
2023-01-22T18:16:29.508Z,23.15
2023-01-22T18:19:00.714Z,22.58
2023-01-22T18:21:27.249Z,65.97
2023-01-22T18:23:53.730Z,49.55
2023-01-22T18:26:23.017Z,35.90
2023-01-22T18:28:51.261Z,36.33
2023-01-22T18:31:21.414Z,30.10
2023-01-22T18:33:51.100Z,31.88
2023-01-22T18:36:27.953Z,29.50
2023-01-22T18:38:58.481Z,24.85
2023-01-22T18:41:26.387Z,23.52
2023-01-22T18:43:55.404Z,23.05
2023-01-22T18:46:26.165Z,23.90
2023-01-22T18:48:57.882Z,24.05
2023-01-22T18:51:25.523Z,24.98
2023-01-22T18:53:52.442Z,25.35
2023-01-22T18:56:18.943Z,24.05
2023-01-22T18:58:45.995Z,24.95
2023-01-22T19:01:19.790Z,25.55
2023-01-22T19:03:54.070Z,25.25
2023-01-22T19:06:23.130Z,34.38
2023-01-22T19:09:00.564Z,33.08
2023-01-22T19:11:27.465Z,32.33
2023-01-22T19:13:56.003Z,34.60
2023-01-22T19:16:24.347Z,34.55
2023-01-22T19:18:56.181Z,31.50
2023-01-22T19:21:27.384Z,26.63
2023-01-22T19:23:56.544Z,27.92
2023-01-22T19:26:28.934Z,44.40
2023-01-22T19:28:58.536Z,34.92
2023-01-22T19:31:30.382Z,25.73
2023-01-22T19:33:57.170Z,26.40
2023-01-22T19:36:28.099Z,22.90
2023-01-22T19:38:58.384Z,43.80
2023-01-22T19:41:26.495Z,31.27
2023-01-22T19:43:59.369Z,24.70
2023-01-22T19:46:27.436Z,23.38
2023-01-22T19:48:54.972Z,24.25
2023-01-22T19:51:22.284Z,22.50
2023-01-22T19:53:49.420Z,25.48
2023-01-22T19:56:27.561Z,36.10
2023-01-22T19:58:59.258Z,26.63
2023-01-22T20:01:28.134Z,29.42
2023-01-22T20:03:56.503Z,33.35
2023-01-22T20:06:23.914Z,32.50
2023-01-22T20:08:51.072Z,32.25
2023-01-22T20:11:18.485Z,31.95
2023-01-22T20:13:48.741Z,30.40
2023-01-22T20:16:25.256Z,29.75
2023-01-22T20:18:52.845Z,31.15
2023-01-22T20:21:20.643Z,30.23
2023-01-22T20:23:48.824Z,29.35
2023-01-22T20:26:16.995Z,28.42
2023-01-22T20:28:43.558Z,27.60
2023-01-22T20:31:19.981Z,27.40
2023-01-22T20:33:50.207Z,26.33
2023-01-22T20:36:21.868Z,26.35
2023-01-22T20:38:52.475Z,25.17
2023-01-22T20:41:19.842Z,25.20
2023-01-22T20:43:46.363Z,26.10
2023-01-22T20:46:22.023Z,24.33
2023-01-22T20:48:51.885Z,23.55
2023-01-22T20:51:24.398Z,24.25
2023-01-22T20:53:52.831Z,24.40
2023-01-22T20:56:23.643Z,23.63
2023-01-22T20:58:58.602Z,23.23
2023-01-22T21:01:26.009Z,21.75
2023-01-22T21:03:56.066Z,22.27
2023-01-22T21:06:22.685Z,22.80
2023-01-22T21:08:56.061Z,21.88
2023-01-22T21:11:24.052Z,21.67
2023-01-22T21:13:52.448Z,21.67
2023-01-22T21:16:26.467Z,21.33
2023-01-22T21:19:01.431Z,21.70
2023-01-22T21:21:29.124Z,21.88
2023-01-22T21:23:56.227Z,22.77
2023-01-22T21:26:25.910Z,24.95
2023-01-22T21:29:01.434Z,26.15
2023-01-22T21:31:28.690Z,26.65
2023-01-22T21:34:03.059Z,25.33
2023-01-22T21:36:41.097Z,23.00
2023-01-22T21:39:10.674Z,21.70
2023-01-22T21:41:41.652Z,22.02
2023-01-22T21:44:30.117Z,22.40
2023-01-22T21:46:56.657Z,23.60
2023-01-22T21:49:24.481Z,21.75
2023-01-22T21:51:55.903Z,22.10
2023-01-22T21:54:23.809Z,22.73
2023-01-22T21:56:50.759Z,21.85
2023-01-22T21:59:17.735Z,22.52
2023-01-22T22:01:45.105Z,23.20
2023-01-22T22:04:15.156Z,26.50
2023-01-22T22:06:46.929Z,25.38
2023-01-22T22:09:19.305Z,25.95
2023-01-22T22:11:45.841Z,28.65
2023-01-22T22:14:15.714Z,28.00
2023-01-22T22:16:43.560Z,24.73
2023-01-22T22:19:10.549Z,23.95
2023-01-22T22:21:37.424Z,24.13
2023-01-22T22:24:04.217Z,24.27
2023-01-22T22:26:31.076Z,23.77
2023-01-22T22:28:58.053Z,22.23
2023-01-22T22:31:25.100Z,21.55
2023-01-22T22:33:54.348Z,22.25
2023-01-22T22:36:23.683Z,20.60
2023-01-22T22:38:50.292Z,20.65
2023-01-22T22:41:20.700Z,21.60
2023-01-22T22:43:51.880Z,22.67
2023-01-22T22:46:20.150Z,23.83
2023-01-22T22:48:47.753Z,23.13
2023-01-22T22:51:18.014Z,23.60
2023-01-22T22:53:44.526Z,22.50
2023-01-22T22:56:14.447Z,24.25
2023-01-22T22:58:41.149Z,23.33
2023-01-22T23:01:09.380Z,24.60
2023-01-22T23:03:37.505Z,22.67
2023-01-22T23:06:11.818Z,22.92
2023-01-22T23:08:40.187Z,23.50
2023-01-22T23:11:09.536Z,23.30
2023-01-22T23:13:36.779Z,24.17
2023-01-22T23:16:08.403Z,22.85
2023-01-22T23:18:38.600Z,22.60
2023-01-22T23:21:16.258Z,22.27
2023-01-22T23:23:42.956Z,21.63
2023-01-22T23:26:12.817Z,22.10
2023-01-22T23:28:40.242Z,22.30
2023-01-22T23:31:15.531Z,20.52
2023-01-22T23:33:42.919Z,22.65
2023-01-22T23:36:13.305Z,22.40
2023-01-22T23:38:40.127Z,21.90
2023-01-22T23:41:09.900Z,21.70
2023-01-22T23:43:38.625Z,21.08
2023-01-22T23:46:16.332Z,21.05
2023-01-22T23:48:43.026Z,20.40
2023-01-22T23:51:11.812Z,19.88
2023-01-22T23:53:40.324Z,21.02
2023-01-22T23:56:07.620Z,19.83
2023-01-22T23:58:35.177Z,20.23
